createdAt,value
2022-10-09T00:00:25.173Z,101170.81
2022-10-09T00:05:27.003Z,101171.38
2022-10-09T00:10:26.345Z,101180.78
2022-10-09T00:15:25.141Z,101173.50
2022-10-09T00:20:23.763Z,101178.28
2022-10-09T00:25:22.633Z,101173.50
2022-10-09T00:30:21.225Z,101174.31
2022-10-09T00:35:20.356Z,101173.69
2022-10-09T00:40:19.248Z,101175.94
2022-10-09T00:45:21.199Z,101178.03
2022-10-09T00:50:23.778Z,101172.84
2022-10-09T00:55:23.632Z,101179.22
2022-10-09T01:00:22.996Z,101174.00
2022-10-09T01:05:39.504Z,101173.72
2022-10-09T01:10:48.574Z,101181.88
2022-10-09T01:16:00.842Z,101179.09
2022-10-09T01:21:10.154Z,101182.00
2022-10-09T01:26:12.730Z,101185.47
2022-10-09T01:31:12.850Z,101193.03
2022-10-09T01:36:11.908Z,101189.50
2022-10-09T01:41:11.286Z,101199.03
2022-10-09T01:46:36.326Z,101208.22
2022-10-09T01:51:53.219Z,101207.88
2022-10-09T01:56:55.285Z,101207.44
2022-10-09T02:01:56.118Z,101215.25
2022-10-09T02:06:55.465Z,101215.50
2022-10-09T02:11:57.257Z,101219.16
2022-10-09T02:17:05.949Z,101218.44
2022-10-09T02:22:15.032Z,101228.75
2022-10-09T02:27:15.280Z,101225.56
2022-10-09T02:32:14.482Z,101229.22
2022-10-09T02:37:13.288Z,101228.63
2022-10-09T02:42:11.925Z,101236.00
2022-10-09T02:47:10.703Z,101240.09
2022-10-09T02:52:09.389Z,101235.69
2022-10-09T02:57:08.140Z,101247.06
2022-10-09T03:02:06.863Z,101246.28
2022-10-09T03:07:05.685Z,101250.38
2022-10-09T03:12:04.679Z,101247.19
2022-10-09T03:17:03.355Z,101262.56
2022-10-09T03:22:01.956Z,101262.81
2022-10-09T03:27:00.522Z,101271.72
2022-10-09T03:31:59.221Z,101271.41
2022-10-09T03:36:58.193Z,101268.38
2022-10-09T03:41:56.772Z,101280.13
2022-10-09T03:46:55.508Z,101276.59
2022-10-09T03:51:54.143Z,101280.47
2022-10-09T03:56:52.821Z,101289.97
2022-10-09T04:01:52.070Z,101284.84
2022-10-09T04:06:50.654Z,101287.22
2022-10-09T04:11:49.323Z,101287.66
2022-10-09T04:16:48.001Z,101296.25
2022-10-09T04:21:46.737Z,101294.63
2022-10-09T04:26:45.436Z,101293.28
2022-10-09T04:31:44.102Z,101302.44
2022-10-09T04:36:42.948Z,101306.03
2022-10-09T04:41:41.675Z,101305.94
2022-10-09T04:46:40.334Z,101300.25
2022-10-09T04:51:39.073Z,101299.66
2022-10-09T04:56:37.754Z,101297.72
2022-10-09T05:01:38.452Z,101312.94
2022-10-09T05:06:37.395Z,101309.09
2022-10-09T05:11:40.396Z,101315.00
2022-10-09T05:17:08.143Z,101316.69
2022-10-09T05:22:01.159Z,101324.81
2022-10-09T05:26:59.759Z,101325.84
2022-10-09T05:31:58.456Z,101340.38
2022-10-09T05:36:57.120Z,101338.81
2022-10-09T05:41:55.852Z,101344.00
2022-10-09T05:46:55.335Z,101344.00
2022-10-09T05:51:56.093Z,101343.16
2022-10-09T05:56:54.891Z,101339.19
2022-10-09T06:01:54.973Z,101345.69
2022-10-09T06:06:53.787Z,101343.09
2022-10-09T06:11:54.423Z,101348.47
2022-10-09T06:16:53.233Z,101352.88
2022-10-09T06:21:52.148Z,101354.53
2022-10-09T06:26:50.770Z,101353.81
2022-10-09T06:31:49.484Z,101366.91
2022-10-09T06:36:48.643Z,101367.91
2022-10-09T06:41:47.235Z,101379.97
2022-10-09T06:47:01.847Z,101382.41
2022-10-09T06:52:00.613Z,101378.81
2022-10-09T06:56:59.244Z,101385.31
2022-10-09T07:01:58.154Z,101392.44
2022-10-09T07:06:57.205Z,101389.28
2022-10-09T07:11:55.989Z,101400.00
2022-10-09T07:16:54.674Z,101398.84
2022-10-09T07:21:53.376Z,101401.13
2022-10-09T07:26:52.282Z,101406.38
2022-10-09T07:31:50.932Z,101410.47
2022-10-09T07:36:49.569Z,101418.41
2022-10-09T07:41:52.239Z,101428.66
2022-10-09T07:46:51.719Z,101429.34
2022-10-09T07:51:50.900Z,101425.66
2022-10-09T07:56:49.582Z,101419.88
2022-10-09T08:01:48.315Z,101424.69
2022-10-09T08:06:47.043Z,101419.47
2022-10-09T08:11:45.923Z,101416.97
2022-10-09T08:16:44.764Z,101424.63
2022-10-09T08:21:43.573Z,101428.13
2022-10-09T08:26:44.141Z,101421.66
2022-10-09T08:31:46.561Z,101417.19
2022-10-09T08:36:45.308Z,101415.97
2022-10-09T08:41:50.371Z,101408.41
2022-10-09T08:46:51.928Z,101408.97
2022-10-09T08:51:50.851Z,101404.75
2022-10-09T08:56:50.713Z,101407.38
2022-10-09T09:02:07.877Z,101407.09
2022-10-09T09:07:34.741Z,101408.97
2022-10-09T09:13:15.435Z,101397.19
2022-10-09T09:18:43.336Z,101403.53
2022-10-09T09:23:46.848Z,101398.97
2022-10-09T09:28:49.955Z,101395.16
2022-10-09T09:39:13.525Z,101387.84
2022-10-09T09:44:06.207Z,101378.34
2022-10-09T09:49:19.701Z,101373.38
2022-10-09T09:54:24.463Z,101367.00
2022-10-09T09:59:31.640Z,101364.88
2022-10-09T10:04:30.493Z,101367.22
2022-10-09T10:09:29.306Z,101358.78
2022-10-09T10:14:28.532Z,101372.38
2022-10-09T10:19:30.089Z,101365.94
2022-10-09T10:24:44.488Z,101352.88
2022-10-09T10:29:45.912Z,101359.50
2022-10-09T10:34:50.444Z,101351.56
2022-10-09T10:39:58.483Z,101349.97
2022-10-09T10:45:04.302Z,101348.53
2022-10-09T10:50:03.092Z,101337.13
2022-10-09T10:55:26.157Z,101325.81
2022-10-09T11:00:26.476Z,101323.44
2022-10-09T11:05:43.703Z,101315.09
2022-10-09T11:11:08.847Z,101311.22
2022-10-09T11:16:33.748Z,101297.78
2022-10-09T11:21:47.630Z,101292.47
2022-10-09T11:27:13.939Z,101278.75
2022-10-09T11:32:22.609Z,101265.03
2022-10-09T11:37:27.000Z,101260.63
2022-10-09T11:42:26.790Z,101251.22
2022-10-09T11:47:59.431Z,101238.38
2022-10-09T11:53:04.187Z,101233.41
2022-10-09T11:58:18.429Z,101218.47
2022-10-09T12:03:38.587Z,101215.44
2022-10-09T12:08:59.804Z,101210.03
2022-10-09T12:14:04.588Z,101202.16
2022-10-09T12:19:26.028Z,101198.56
2022-10-09T12:24:29.112Z,101187.97
2022-10-09T12:29:50.185Z,101181.97
2022-10-09T12:34:51.299Z,101176.34
2022-10-09T12:39:50.420Z,101169.81
2022-10-09T12:44:50.855Z,101166.63
2022-10-09T12:49:59.646Z,101152.16
2022-10-09T12:54:58.503Z,101151.53
2022-10-09T12:59:58.298Z,101152.41
2022-10-09T13:05:00.866Z,101143.88
2022-10-09T13:10:03.005Z,101138.13
2022-10-09T13:15:05.542Z,101134.09
2022-10-09T13:20:13.547Z,101121.84
2022-10-09T13:25:12.309Z,101123.66
2022-10-09T13:30:12.007Z,101116.97
2022-10-09T13:35:11.092Z,101110.81
2022-10-09T13:40:19.797Z,101102.06
2022-10-09T13:45:18.640Z,101098.41
2022-10-09T13:50:17.971Z,101092.44
2022-10-09T13:55:17.116Z,101084.97
2022-10-09T14:00:15.837Z,101075.97
2022-10-09T14:05:14.704Z,101077.06
2022-10-09T14:10:13.790Z,101069.97
2022-10-09T14:15:12.532Z,101064.28
2022-10-09T14:20:11.491Z,101064.06
2022-10-09T14:25:10.584Z,101054.59
2022-10-09T14:30:10.141Z,101050.41
2022-10-09T14:35:09.226Z,101052.84
2022-10-09T14:40:08.717Z,101036.41
2022-10-09T14:45:09.063Z,101034.19
2022-10-09T14:50:08.527Z,101034.31
2022-10-09T14:55:07.755Z,101025.13
2022-10-09T15:00:08.096Z,101024.13
2022-10-09T15:05:07.167Z,101020.53
2022-10-09T15:10:06.228Z,101019.44
2022-10-09T15:15:05.148Z,101012.53
2022-10-09T15:20:03.993Z,101017.94
2022-10-09T15:25:02.779Z,101011.75
2022-10-09T15:30:02.291Z,101014.16
2022-10-09T15:35:01.874Z,101009.16
2022-10-09T15:40:00.538Z,101007.56
2022-10-09T15:44:59.307Z,101003.72
2022-10-09T15:49:58.175Z,101006.78
2022-10-09T15:54:56.915Z,100994.03
2022-10-09T15:59:55.686Z,101002.03
2022-10-09T16:04:54.467Z,101009.72
2022-10-09T16:09:53.114Z,101003.31
2022-10-09T16:14:51.879Z,101006.41
2022-10-09T16:19:50.671Z,101013.63
2022-10-09T16:24:49.429Z,101012.34
2022-10-09T16:29:48.680Z,101008.28
2022-10-09T16:34:49.633Z,101000.47
2022-10-09T16:39:49.434Z,101004.88
2022-10-09T16:44:48.727Z,101014.41
2022-10-09T16:49:47.757Z,101010.81
2022-10-09T16:54:48.398Z,101011.03
2022-10-09T16:59:47.447Z,101005.69
2022-10-09T17:04:46.578Z,100999.03
2022-10-09T17:09:45.318Z,101008.81
2022-10-09T17:14:44.198Z,101002.94
2022-10-09T17:19:43.620Z,100994.47
2022-10-09T17:24:42.341Z,100999.72
2022-10-09T17:29:41.213Z,100995.94
2022-10-09T17:34:45.623Z,100996.22
2022-10-09T17:39:48.548Z,100996.88
2022-10-09T17:44:50.066Z,100986.19
2022-10-09T17:49:48.741Z,100993.84
2022-10-09T17:54:47.434Z,100990.78
2022-10-09T17:59:46.346Z,100989.06
2022-10-09T18:04:45.305Z,100988.84
2022-10-09T18:09:45.096Z,100990.59
2022-10-09T18:14:43.811Z,100992.59
2022-10-09T18:19:42.644Z,100989.28
2022-10-09T18:24:41.296Z,100987.41
2022-10-09T18:29:39.961Z,100984.75
2022-10-09T18:34:39.364Z,100979.53
2022-10-09T18:39:38.592Z,100984.31
2022-10-09T18:44:40.330Z,100978.91
2022-10-09T18:49:43.666Z,100967.56
2022-10-09T18:54:43.231Z,100973.38
2022-10-09T18:59:42.557Z,100974.06
2022-10-09T19:04:41.249Z,100976.00
2022-10-09T19:09:40.651Z,100970.44
2022-10-09T19:14:39.354Z,100972.44
2022-10-09T19:19:38.717Z,100962.34
2022-10-09T19:24:37.419Z,100957.25
2022-10-09T19:29:36.869Z,100953.50
2022-10-09T19:34:35.748Z,100959.31
2022-10-09T19:39:34.793Z,100954.84
2022-10-09T19:44:33.532Z,100949.97
2022-10-09T19:49:32.431Z,100938.69
2022-10-09T19:54:32.852Z,100940.31
2022-10-09T19:59:31.876Z,100930.16
2022-10-09T20:04:30.653Z,100933.28
2022-10-09T20:09:29.379Z,100925.34
2022-10-09T20:14:28.738Z,100922.78
2022-10-09T20:19:30.896Z,100918.84
2022-10-09T20:24:29.785Z,100912.72
2022-10-09T20:29:28.507Z,100908.00
2022-10-09T20:34:27.780Z,100894.03
2022-10-09T20:39:26.506Z,100893.16
2022-10-09T20:44:25.215Z,100892.72
2022-10-09T20:49:24.078Z,100881.19
2022-10-09T20:54:23.289Z,100882.44
2022-10-09T20:59:22.114Z,100882.75
2022-10-09T21:04:20.841Z,100873.34
2022-10-09T21:09:19.745Z,100878.56
2022-10-09T21:14:18.611Z,100861.75
2022-10-09T21:19:17.478Z,100845.88
2022-10-09T21:24:16.280Z,100851.25
2022-10-09T21:29:15.117Z,100856.34
2022-10-09T21:34:13.777Z,100844.41
2022-10-09T21:39:12.605Z,100845.84
2022-10-09T21:44:11.532Z,100847.38
2022-10-09T21:49:23.118Z,100835.97
2022-10-09T21:54:21.946Z,100831.44
2022-10-09T21:59:20.649Z,100830.16
2022-10-09T22:04:19.928Z,100820.88
2022-10-09T22:09:20.481Z,100819.28
2022-10-09T22:14:19.368Z,100816.28
2022-10-09T22:19:19.043Z,100812.81
2022-10-09T22:24:17.857Z,100806.63
2022-10-09T22:29:16.613Z,100807.28
2022-10-09T22:34:15.265Z,100805.94
2022-10-09T22:39:14.020Z,100801.66
2022-10-09T22:44:12.824Z,100793.44
2022-10-09T22:49:14.228Z,100798.66
2022-10-09T22:54:13.312Z,100777.72
2022-10-09T22:59:14.559Z,100775.16
2022-10-09T23:04:15.532Z,100775.19
2022-10-09T23:09:15.344Z,100776.31
2022-10-09T23:14:14.709Z,100767.50
2022-10-09T23:19:13.545Z,100760.94
2022-10-09T23:24:17.372Z,100751.34
2022-10-09T23:29:18.031Z,100750.59
2022-10-09T23:34:16.830Z,100747.28
2022-10-09T23:39:15.558Z,100742.91
2022-10-09T23:44:15.321Z,100734.53
2022-10-09T23:49:16.541Z,100734.72
2022-10-09T23:54:15.311Z,100726.78
2022-10-09T23:59:14.046Z,100724.38
